Time;durP1;ratioP1;P1;durP2;ratioP2;P2;SDS_P1;SDS_P2;PMS_P1;PMS_P2;Temp;Humidity;BMP_temperature;BMP_pressure;BME280_temperature;BME280_humidity;BME280_pressure;Samples;Min_cycle;Max_cycle;Signal;HPM_P1;HPM_P2
2022/03/07 00:02:06;;;;;;;24.57;15.07;;;;;;;-1.95;82.91;102853.72;5013333;28;20221;-72
2022/03/07 00:04:32;;;;;;;19.73;13.93;;;;;;;-1.94;82.55;102847.06;5031168;28;20429;-71
2022/03/07 00:06:57;;;;;;;19.30;14.23;;;;;;;-1.96;82.32;102853.56;5031001;28;20425;-72
2022/03/07 00:09:23;;;;;;;27.43;13.93;;;;;;;-2.00;82.02;102859.00;5030977;28;20222;-73
2022/03/07 00:11:48;;;;;;;21.73;14.20;;;;;;;-2.01;82.26;102853.09;5031064;28;20186;-71
2022/03/07 00:14:14;;;;;;;20.30;14.03;;;;;;;-2.00;82.37;102859.88;5031029;28;20228;-72
2022/03/07 00:16:39;;;;;;;22.90;15.17;;;;;;;-2.03;83.33;102862.06;4996826;28;20217;-73
2022/03/07 00:19:05;;;;;;;38.47;18.57;;;;;;;-2.13;84.73;102851.84;5030955;28;20816;-71
2022/03/07 00:21:31;;;;;;;57.67;25.23;;;;;;;-2.10;85.01;102862.22;5013203;28;20229;-72
2022/03/07 00:23:56;;;;;;;67.97;29.30;;;;;;;-2.09;84.77;102861.47;5013046;28;20252;-71
2022/03/07 00:26:21;;;;;;;69.87;29.67;;;;;;;-2.11;84.53;102862.06;5030684;28;20179;-72
2022/03/07 00:28:47;;;;;;;53.80;24.83;;;;;;;-2.17;84.49;102862.31;5041982;28;20238;-71
2022/03/07 00:31:13;;;;;;;41.13;21.03;;;;;;;-2.23;83.69;102864.19;5015163;28;20222;-71
2022/03/07 00:33:40;;;;;;;25.57;16.87;;;;;;;-2.18;83.88;102865.56;5012934;28;20210;-71
2022/03/07 00:36:06;;;;;;;37.30;18.73;;;;;;;-2.25;84.04;102863.13;5012772;28;21011;-71
2022/03/07 00:38:32;;;;;;;33.10;19.17;;;;;;;-2.31;84.06;102862.53;5030488;28;20448;-72
2022/03/07 00:40:58;;;;;;;29.57;17.97;;;;;;;-2.32;83.49;102865.78;4996459;28;20449;-72
2022/03/07 00:43:23;;;;;;;31.10;17.80;;;;;;;-2.34;83.54;102856.31;5012430;28;20215;-71
2022/03/07 00:45:49;;;;;;;29.87;16.80;;;;;;;-2.33;83.20;102865.59;5030070;28;20436;-72
2022/03/07 00:48:16;;;;;;;25.90;15.90;;;;;;;-2.32;83.59;102858.25;5012418;28;20189;-72
2022/03/07 00:50:47;;;;;;;24.33;15.00;;;;;;;-2.32;83.08;102868.28;5033878;28;20565;-71
2022/03/07 00:53:16;;;;;;;22.80;14.30;;;;;;;-2.40;83.42;102874.13;5016853;28;20484;-71
2022/03/07 00:55:42;;;;;;;27.47;16.00;;;;;;;-2.45;83.35;102874.38;5012374;28;20461;-71
2022/03/07 00:58:10;;;;;;;20.57;13.80;;;;;;;-2.43;83.00;102876.28;5002869;28;20575;-71
2022/03/07 01:00:37;;;;;;;20.13;14.10;;;;;;;-2.44;82.25;102872.03;5028269;28;20551;-72
2022/03/07 01:03:04;;;;;;;20.70;14.57;;;;;;;-2.44;82.12;102882.06;5012206;28;20217;-72
2022/03/07 01:05:30;;;;;;;20.03;13.47;;;;;;;-2.51;82.98;102879.66;5029894;28;20433;-71
2022/03/07 01:07:55;;;;;;;18.57;12.23;;;;;;;-2.51;82.91;102869.63;5029846;28;20425;-71
2022/03/07 01:10:21;;;;;;;18.03;12.67;;;;;;;-2.54;82.46;102871.81;5011759;28;20650;-72
2022/03/07 01:12:46;;;;;;;22.17;14.07;;;;;;;-2.54;82.52;102866.78;5029671;28;20699;-71
2022/03/07 01:15:14;;;;;;;20.23;13.77;;;;;;;-2.51;82.49;102872.13;5036896;28;20727;-72
2022/03/07 01:17:39;;;;;;;18.27;12.93;;;;;;;-2.58;83.29;102879.75;5031572;28;20448;-73
2022/03/07 01:20:07;;;;;;;19.33;13.30;;;;;;;-2.58;83.38;102878.88;5049400;28;20432;-72
2022/03/07 01:22:32;;;;;;;20.57;14.37;;;;;;;-2.59;83.12;102880.47;5031559;28;20547;-71
2022/03/07 01:25:00;;;;;;;24.80;15.93;;;;;;;-2.59;83.28;102882.09;5049488;28;20476;-72
2022/03/07 01:27:26;;;;;;;20.13;14.40;;;;;;;-2.60;83.21;102882.81;5048046;28;20837;-72
2022/03/07 01:29:51;;;;;;;18.47;13.57;;;;;;;-2.66;83.17;102892.22;4997462;28;20449;-71
2022/03/07 01:32:16;;;;;;;22.37;14.73;;;;;;;-2.68;83.01;102888.66;5011826;28;20197;-71
2022/03/07 01:34:42;;;;;;;20.43;14.10;;;;;;;-2.66;83.08;102900.59;5029428;28;20657;-71
2022/03/07 01:37:08;;;;;;;19.17;14.17;;;;;;;-2.71;83.55;102896.72;5029460;28;20225;-71
2022/03/07 01:39:33;;;;;;;21.90;14.00;;;;;;;-2.70;83.58;102887.63;5011352;28;20298;-71
2022/03/07 01:41:59;;;;;;;23.97;16.40;;;;;;;-2.64;85.12;102885.72;5029289;28;20245;-71
2022/03/07 01:44:28;;;;;;;25.30;16.37;;;;;;;-2.60;86.15;102871.19;5011230;28;20227;-72
2022/03/07 01:46:56;;;;;;;26.90;16.93;;;;;;;-2.57;87.28;102871.47;5029379;28;20773;-71
2022/03/07 01:49:23;;;;;;;24.87;15.73;;;;;;;-2.59;87.92;102880.47;5011278;28;20480;-72
2022/03/07 01:51:49;;;;;;;23.40;15.97;;;;;;;-2.69;88.15;102880.25;5029199;28;20790;-71
2022/03/07 01:54:17;;;;;;;22.60;14.83;;;;;;;-2.75;87.29;102876.22;5011295;28;20542;-73
2022/03/07 01:56:45;;;;;;;21.30;15.27;;;;;;;-2.82;86.79;102873.78;4994912;28;20848;-70
2022/03/07 01:59:13;;;;;;;17.83;13.70;;;;;;;-2.85;85.64;102874.38;5011170;28;20444;-72
2022/03/07 02:01:38;;;;;;;18.93;14.00;;;;;;;-2.90;85.09;102860.47;5028074;28;20807;-71
2022/03/07 02:04:04;;;;;;;19.17;13.80;;;;;;;-2.93;85.08;102865.19;5011615;28;20465;-70
2022/03/07 02:06:30;;;;;;;19.33;13.50;;;;;;;-2.95;84.67;102863.25;5011612;28;20237;-72
2022/03/07 02:08:56;;;;;;;18.87;13.53;;;;;;;-2.94;83.51;102867.53;5011360;28;20472;-71
2022/03/07 02:11:31;;;;;;;19.97;13.13;;;;;;;-2.96;83.82;102867.34;5011596;28;20271;-73
2022/03/07 02:14:13;;;;;;;18.70;13.40;;;;;;;-2.97;83.32;102863.09;5022223;28;20651;-72
2022/03/07 02:16:40;;;;;;;20.20;13.77;;;;;;;-2.99;84.05;102858.63;5013257;28;20469;-72
2022/03/07 02:19:05;;;;;;;19.63;13.03;;;;;;;-3.02;83.80;102858.31;5011542;28;20441;-73
2022/03/07 02:21:34;;;;;;;17.77;13.53;;;;;;;-3.01;84.07;102865.09;5011571;28;20194;-72
2022/03/07 02:24:13;;;;;;;18.10;13.17;;;;;;;-3.01;83.91;102870.09;5016481;28;20585;-71
2022/03/07 02:26:42;;;;;;;22.20;13.23;;;;;;;-3.03;84.87;102866.56;5031106;28;20468;-72
2022/03/07 02:29:09;;;;;;;18.40;12.53;;;;;;;-3.05;84.63;102863.88;5013916;28;20534;-73
2022/03/07 02:31:36;;;;;;;20.60;13.83;;;;;;;-3.08;84.06;102856.03;5031182;28;20204;-71
2022/03/07 02:34:04;;;;;;;19.57;13.43;;;;;;;-3.07;84.03;102854.44;5027681;28;20885;-71
2022/03/07 02:36:30;;;;;;;19.37;13.20;;;;;;;-3.13;84.25;102851.31;5028506;28;20550;-73
2022/03/07 02:38:56;;;;;;;21.57;13.20;;;;;;;-3.18;84.29;102845.78;5002512;28;20243;-71
2022/03/07 02:41:23;;;;;;;22.77;14.33;;;;;;;-3.15;84.47;102847.72;5011645;28;20472;-71
2022/03/07 02:43:50;;;;;;;23.30;14.37;;;;;;;-3.10;84.99;102846.59;4997179;28;20469;-71
2022/03/07 02:46:16;;;;;;;25.77;15.37;;;;;;;-2.99;85.15;102843.63;5031180;28;20801;-70
2022/03/07 02:48:41;;;;;;;23.70;15.67;;;;;;;-3.01;84.83;102857.56;5024754;28;20674;-71
2022/03/07 02:51:07;;;;;;;24.17;14.57;;;;;;;-3.02;85.04;102853.31;5011038;28;20285;-72
2022/03/07 02:53:33;;;;;;;23.57;15.23;;;;;;;-3.02;84.50;102851.69;5025878;28;20209;-72
2022/03/07 02:55:58;;;;;;;25.03;15.07;;;;;;;-3.05;84.61;102855.47;5020584;28;20472;-71
2022/03/07 02:58:24;;;;;;;26.47;16.00;;;;;;;-3.02;84.28;102859.22;5047486;28;20186;-71
2022/03/07 03:00:49;;;;;;;25.53;14.77;;;;;;;-3.00;84.51;102861.84;5042142;28;20284;-71
2022/03/07 03:03:15;;;;;;;27.17;15.53;;;;;;;-3.02;84.51;102858.31;5032532;28;20719;-72
2022/03/07 03:05:40;;;;;;;24.80;15.30;;;;;;;-2.97;84.38;102852.16;5020662;28;20631;-71
2022/03/07 03:08:06;;;;;;;28.13;15.67;;;;;;;-2.96;84.74;102857.34;5033795;28;20611;-72
2022/03/07 03:10:31;;;;;;;31.47;16.50;;;;;;;-2.93;84.91;102852.66;5048238;28;20189;-71
2022/03/07 03:12:57;;;;;;;34.00;17.03;;;;;;;-2.83;85.20;102857.88;5033664;28;20240;-73
2022/03/07 03:15:22;;;;;;;36.77;19.27;;;;;;;-2.76;86.66;102852.78;5033585;28;20209;-72
2022/03/07 03:17:48;;;;;;;37.47;20.30;;;;;;;-2.76;86.94;102851.91;5036509;28;20202;-70
2022/03/07 03:20:15;;;;;;;31.63;18.60;;;;;;;-2.75;87.19;102852.03;5032054;28;20677;-71
2022/03/07 03:22:42;;;;;;;33.33;19.93;;;;;;;-2.71;87.50;102854.13;5014487;28;20782;-74
2022/03/07 03:25:09;;;;;;;30.80;19.67;;;;;;;-2.66;87.57;102859.63;5037940;28;20445;-74
2022/03/07 03:27:35;;;;;;;36.87;20.27;;;;;;;-2.71;87.86;102854.13;5032082;28;20440;-73
2022/03/07 03:30:00;;;;;;;42.03;21.33;;;;;;;-2.68;87.71;102859.47;5032054;28;21191;-71
2022/03/07 03:32:27;;;;;;;41.00;20.60;;;;;;;-2.67;87.42;102858.75;5014472;28;20253;-74
2022/03/07 03:34:55;;;;;;;34.07;18.63;;;;;;;-2.63;87.78;102855.81;5031987;28;20214;-71
2022/03/07 03:37:21;;;;;;;36.00;19.10;;;;;;;-2.69;88.35;102856.81;5032010;28;20931;-71
2022/03/07 03:39:46;;;;;;;37.97;19.00;;;;;;;-2.64;87.90;102851.53;5031773;28;20444;-73
2022/03/07 03:42:11;;;;;;;34.40;19.63;;;;;;;-2.67;88.50;102866.25;5013940;28;20266;-71
2022/03/07 03:44:37;;;;;;;36.57;20.03;;;;;;;-2.63;88.14;102864.94;5014061;28;20182;-74
2022/03/07 03:47:02;;;;;;;33.10;18.70;;;;;;;-2.64;87.45;102864.06;5013977;28;20194;-74
2022/03/07 03:49:29;;;;;;;43.00;19.63;;;;;;;-2.62;87.45;102867.63;5031579;28;20202;-73
2022/03/07 03:51:55;;;;;;;37.17;19.63;;;;;;;-2.63;87.30;102865.84;5031841;28;20190;-71
2022/03/07 03:54:21;;;;;;;34.43;17.63;;;;;;;-2.63;86.67;102868.34;5044554;28;21005;-72
2022/03/07 03:56:46;;;;;;;38.23;19.47;;;;;;;-2.67;87.00;102868.75;5051621;28;20241;-73
2022/03/07 03:59:11;;;;;;;32.23;18.13;;;;;;;-2.63;87.41;102865.84;5051519;28;20193;-73
2022/03/07 04:01:37;;;;;;;27.57;17.00;;;;;;;-2.59;87.27;102864.53;5051432;28;20193;-72
2022/03/07 04:04:02;;;;;;;29.50;17.23;;;;;;;-2.60;87.07;102860.25;5051385;28;20212;-70
2022/03/07 04:06:27;;;;;;;34.87;18.67;;;;;;;-2.61;86.63;102866.91;5033125;28;20186;-72
2022/03/07 04:08:58;;;;;;;31.93;19.73;;;;;;;-2.56;86.86;102867.38;5041734;28;20186;-70
2022/03/07 04:11:26;;;;;;;40.50;22.53;;;;;;;-2.52;86.82;102867.81;5013362;28;20183;-73
2022/03/07 04:13:52;;;;;;;44.73;25.13;;;;;;;-2.41;88.02;102874.84;5031231;28;20476;-73
2022/03/07 04:16:17;;;;;;;41.80;26.10;;;;;;;-2.32;89.12;102872.38;5032490;28;20214;-70
2022/03/07 04:18:43;;;;;;;51.03;28.03;;;;;;;-2.25;89.71;102869.78;5031325;28;20193;-73
2022/03/07 04:21:08;;;;;;;51.33;27.20;;;;;;;-2.21;90.09;102876.91;5031051;28;20294;-73
2022/03/07 04:23:33;;;;;;;56.60;29.30;;;;;;;-2.16;90.99;102886.66;5031096;28;20202;-71
2022/03/07 04:25:59;;;;;;;63.33;29.83;;;;;;;-2.13;91.25;102888.56;5030914;28;20853;-71
2022/03/07 04:28:24;;;;;;;83.23;31.63;;;;;;;-2.09;92.40;102896.59;5031044;28;20194;-71
2022/03/07 04:30:49;;;;;;;77.80;29.63;;;;;;;-2.07;92.98;102889.22;5030830;28;20182;-74
2022/03/07 04:33:15;;;;;;;93.70;34.33;;;;;;;-2.05;93.63;102893.66;5023007;28;20209;-73
2022/03/07 04:35:40;;;;;;;81.33;34.53;;;;;;;-2.05;94.10;102888.66;5036838;28;20206;-71
2022/03/07 04:38:06;;;;;;;95.03;34.17;;;;;;;-2.04;95.11;102885.41;5013346;28;20193;-71
2022/03/07 04:40:31;;;;;;;82.80;33.77;;;;;;;-2.04;95.17;102871.94;5047389;28;20190;-70
2022/03/07 04:42:57;;;;;;;93.60;36.27;;;;;;;-2.04;95.94;102879.47;5013136;28;20218;-70
2022/03/07 04:45:23;;;;;;;83.87;37.27;;;;;;;-2.09;96.03;102875.63;5030753;28;20205;-71
2022/03/07 04:47:49;;;;;;;92.17;37.00;;;;;;;-2.16;96.68;102864.06;5030727;28;20191;-72
2022/03/07 04:50:14;;;;;;;102.70;38.17;;;;;;;-2.17;96.80;102866.41;5012986;28;20676;-72
2022/03/07 04:52:42;;;;;;;96.50;39.50;;;;;;;-2.21;97.54;102859.34;5030544;28;20453;-71
2022/03/07 04:55:12;;;;;;;86.80;38.23;;;;;;;-2.27;97.45;102863.72;5030345;28;20267;-71
2022/03/07 04:57:38;;;;;;;89.27;39.37;;;;;;;-2.27;98.13;102866.22;5012413;28;20447;-71
2022/03/07 05:00:08;;;;;;;104.43;40.67;;;;;;;-2.26;98.48;102861.38;5031761;28;20813;-71
2022/03/07 05:02:34;;;;;;;108.73;42.30;;;;;;;-2.19;98.69;102865.38;5030487;28;20214;-70
2022/03/07 05:04:59;;;;;;;110.77;43.90;;;;;;;-2.28;99.01;102871.97;5030501;28;20433;-74
2022/03/07 05:07:25;;;;;;;132.20;48.33;;;;;;;-2.26;98.95;102878.06;5021531;28;20247;-70
2022/03/07 05:09:50;;;;;;;119.30;46.47;;;;;;;-2.22;99.39;102881.03;5029405;28;20225;-71
2022/03/07 05:12:16;;;;;;;105.23;43.43;;;;;;;-2.20;99.24;102879.53;5012394;28;20598;-73
2022/03/07 05:14:41;;;;;;;107.97;44.43;;;;;;;-2.19;99.96;102871.31;5041850;28;20255;-73
2022/03/07 05:17:07;;;;;;;109.33;45.67;;;;;;;-2.14;99.48;102874.28;5037207;28;20269;-71
2022/03/07 05:19:32;;;;;;;118.40;45.60;;;;;;;-2.14;100.00;102869.25;5031446;28;20272;-72
2022/03/07 05:21:57;;;;;;;127.77;46.97;;;;;;;-2.16;100.00;102876.63;5048024;28;20202;-72
2022/03/07 05:24:23;;;;;;;112.60;44.30;;;;;;;-2.09;100.00;102880.63;5050064;28;20207;-70
2022/03/07 05:26:48;;;;;;;113.87;47.23;;;;;;;-2.05;100.00;102865.16;5050092;28;20186;-72
2022/03/07 05:29:14;;;;;;;107.70;43.50;;;;;;;-2.02;100.00;102886.44;5049781;28;20182;-71
2022/03/07 05:31:39;;;;;;;101.67;42.43;;;;;;;-2.02;100.00;102888.06;5036188;28;20205;-71
2022/03/07 05:34:04;;;;;;;99.27;41.93;;;;;;;-2.07;100.00;102894.25;5037076;28;20210;-71
2022/03/07 05:36:30;;;;;;;99.93;41.03;;;;;;;-2.13;100.00;102894.50;5028270;28;20344;-71
2022/03/07 05:38:55;;;;;;;94.47;39.50;;;;;;;-2.17;100.00;102902.44;5029720;28;20179;-72
2022/03/07 05:41:20;;;;;;;109.67;42.07;;;;;;;-2.22;100.00;102900.19;5044005;28;20716;-73
2022/03/07 05:43:46;;;;;;;101.17;40.30;;;;;;;-2.22;100.00;102902.69;5049121;28;20704;-71
2022/03/07 05:46:11;;;;;;;98.47;39.10;;;;;;;-2.27;100.00;102909.75;5049596;28;20736;-71
2022/03/07 05:48:36;;;;;;;91.70;41.13;;;;;;;-2.21;100.00;102900.34;5041680;28;20563;-70
2022/03/07 05:51:02;;;;;;;93.57;40.27;;;;;;;-2.27;100.00;102899.72;5029329;28;20187;-72
2022/03/07 05:53:27;;;;;;;113.57;41.83;;;;;;;-2.25;100.00;102894.88;5029391;28;20230;-71
2022/03/07 05:55:52;;;;;;;102.47;38.83;;;;;;;-2.24;100.00;102902.56;5029588;28;20306;-71
2022/03/07 05:58:18;;;;;;;103.40;40.90;;;;;;;-2.27;100.00;102908.84;5029508;28;20329;-70
2022/03/07 06:00:44;;;;;;;124.30;38.73;;;;;;;-2.29;100.00;102902.81;5038489;28;20286;-71
2022/03/07 06:03:09;;;;;;;97.77;39.57;;;;;;;-2.31;100.00;102899.25;5049280;28;20198;-72
2022/03/07 06:05:35;;;;;;;84.47;38.33;;;;;;;-2.30;100.00;102903.53;5049096;28;20942;-71
2022/03/07 06:08:00;;;;;;;79.50;36.53;;;;;;;-2.26;100.00;102900.63;5047933;28;20201;-70
2022/03/07 06:10:26;;;;;;;86.17;38.80;;;;;;;-2.24;100.00;102907.56;5049586;28;20241;-70
2022/03/07 06:12:51;;;;;;;102.03;38.83;;;;;;;-2.24;100.00;102901.66;5049414;28;20267;-71
2022/03/07 06:15:17;;;;;;;77.40;36.20;;;;;;;-2.27;100.00;102904.75;5049270;28;20210;-69
2022/03/07 06:17:56;;;;;;;89.27;38.87;;;;;;;-2.27;100.00;102916.38;5049422;28;20189;-71
2022/03/07 06:20:23;;;;;;;80.20;37.40;;;;;;;-2.30;100.00;102914.44;5022574;28;20524;-73
2022/03/07 06:22:49;;;;;;;78.97;36.03;;;;;;;-2.24;100.00;102914.19;5044993;28;20470;-71
2022/03/07 06:25:15;;;;;;;95.23;37.80;;;;;;;-2.26;100.00;102909.03;5049004;28;20435;-72
2022/03/07 06:27:40;;;;;;;75.27;35.83;;;;;;;-2.23;100.00;102910.94;5049176;28;20243;-72
2022/03/07 06:30:08;;;;;;;84.23;37.73;;;;;;;-2.24;100.00;102920.13;5050348;28;20189;-70
2022/03/07 06:32:34;;;;;;;77.50;36.53;;;;;;;-2.18;100.00;102915.72;5053218;28;20221;-71
2022/03/07 06:34:59;;;;;;;69.90;36.47;;;;;;;-2.13;100.00;102913.66;5053152;28;20917;-72
2022/03/07 06:37:25;;;;;;;87.40;35.83;;;;;;;-2.15;100.00;102920.16;5053058;28;20463;-72
2022/03/07 06:39:50;;;;;;;75.73;36.77;;;;;;;-2.07;100.00;102919.34;5035048;28;20197;-70
2022/03/07 06:42:15;;;;;;;75.53;36.33;;;;;;;-2.05;100.00;102915.34;5053320;28;20802;-72
2022/03/07 06:44:41;;;;;;;74.53;35.77;;;;;;;-2.01;100.00;102920.84;5035229;28;20604;-74
2022/03/07 06:47:07;;;;;;;97.30;39.97;;;;;;;-2.00;100.00;102920.09;5053021;28;20532;-71
2022/03/07 06:49:32;;;;;;;81.33;35.97;;;;;;;-1.93;100.00;102921.63;5035003;28;20185;-71
2022/03/07 06:51:58;;;;;;;73.73;34.17;;;;;;;-1.94;100.00;102915.69;5052957;28;20796;-73
2022/03/07 06:54:23;;;;;;;70.10;33.80;;;;;;;-1.85;100.00;102906.59;5052667;28;20209;-71
2022/03/07 06:56:48;;;;;;;66.23;32.37;;;;;;;-1.85;100.00;102908.22;5052782;28;20242;-71
2022/03/07 06:59:14;;;;;;;64.60;32.07;;;;;;;-1.75;100.00;102908.44;5034447;28;20190;-71
2022/03/07 07:01:39;;;;;;;66.30;32.77;;;;;;;-1.73;100.00;102914.47;5052549;28;20613;-71
2022/03/07 07:04:05;;;;;;;64.70;32.40;;;;;;;-1.66;100.00;102909.34;5052787;28;20213;-73
2022/03/07 07:06:30;;;;;;;83.17;32.47;;;;;;;-1.60;100.00;102913.34;5049793;28;20174;-71
2022/03/07 07:08:55;;;;;;;82.90;33.17;;;;;;;-1.53;100.00;102910.72;5014758;28;20562;-71
2022/03/07 07:11:22;;;;;;;75.23;32.27;;;;;;;-1.45;100.00;102908.97;5032521;28;20230;-71
2022/03/07 07:13:47;;;;;;;70.50;31.57;;;;;;;-1.46;100.00;102909.72;5032435;28;20794;-72
2022/03/07 07:16:12;;;;;;;66.57;31.33;;;;;;;-1.33;99.96;102908.56;5046906;28;20209;-70
2022/03/07 07:18:38;;;;;;;68.27;31.40;;;;;;;-1.20;99.83;102903.13;5052365;28;20217;-71
2022/03/07 07:21:04;;;;;;;59.77;32.40;;;;;;;-1.14;99.92;102901.22;5037369;28;20218;-70
2022/03/07 07:23:29;;;;;;;64.10;30.57;;;;;;;-1.13;99.85;102905.50;5032149;28;20901;-69
2022/03/07 07:25:55;;;;;;;61.27;31.90;;;;;;;-1.14;99.49;102907.13;5022315;28;20552;-70
2022/03/07 07:28:20;;;;;;;64.87;30.73;;;;;;;-1.01;99.29;102907.59;5040885;28;20190;-71
2022/03/07 07:30:46;;;;;;;63.10;31.67;;;;;;;-0.90;98.87;102913.69;5038210;28;20875;-70
2022/03/07 07:33:12;;;;;;;72.40;32.67;;;;;;;-0.87;98.56;102912.34;5040561;28;20222;-70
2022/03/07 07:35:37;;;;;;;66.07;31.90;;;;;;;-0.77;98.58;102915.00;5024817;28;20213;-70
2022/03/07 07:38:04;;;;;;;72.43;34.03;;;;;;;-0.69;98.26;102915.78;5042796;28;20624;-73
2022/03/07 07:40:30;;;;;;;67.63;33.30;;;;;;;-0.57;97.88;102916.94;5043797;28;20197;-69
2022/03/07 07:42:55;;;;;;;63.67;34.03;;;;;;;-0.44;98.17;102920.78;5038195;28;20464;-71
2022/03/07 07:45:20;;;;;;;58.13;31.77;;;;;;;-0.37;97.74;102915.59;5014179;28;20550;-71
2022/03/07 07:47:46;;;;;;;59.40;31.03;;;;;;;-0.32;97.09;102918.56;5031685;28;20903;-71
2022/03/07 07:50:11;;;;;;;57.80;30.63;;;;;;;-0.18;96.53;102916.59;5013786;28;20673;-72
2022/03/07 07:52:36;;;;;;;58.43;30.50;;;;;;;0.06;96.13;102930.63;5013681;28;20664;-70
2022/03/07 07:55:04;;;;;;;56.07;29.10;;;;;;;0.27;95.80;102934.25;5031450;28;20214;-73
2022/03/07 07:57:31;;;;;;;59.70;29.23;;;;;;;0.53;94.39;102930.88;5013752;28;20194;-71
2022/03/07 07:59:56;;;;;;;56.27;27.67;;;;;;;0.63;93.98;102936.03;5043254;28;20193;-72
2022/03/07 08:02:21;;;;;;;44.03;24.63;;;;;;;0.71;92.88;102934.22;5033413;28;20217;-72
2022/03/07 08:04:47;;;;;;;45.20;26.17;;;;;;;0.91;90.28;102926.84;5033152;28;20300;-71
2022/03/07 08:07:12;;;;;;;44.90;24.93;;;;;;;1.15;89.16;102918.97;5033293;28;20190;-71
2022/03/07 08:09:38;;;;;;;44.83;24.90;;;;;;;1.02;87.08;102918.59;5039727;28;20190;-72
2022/03/07 08:12:03;;;;;;;39.50;24.10;;;;;;;1.45;85.53;102916.63;5031133;28;20195;-73
2022/03/07 08:14:29;;;;;;;40.87;22.80;;;;;;;1.81;83.64;102919.88;5031170;28;20240;-71
2022/03/07 08:16:54;;;;;;;35.63;23.10;;;;;;;1.97;82.65;102916.28;5043585;28;20350;-72
2022/03/07 08:19:19;;;;;;;36.10;22.70;;;;;;;2.30;82.67;102918.31;5031411;28;20190;-72
2022/03/07 08:21:45;;;;;;;36.73;22.87;;;;;;;2.22;81.72;102917.66;5034754;28;20676;-73
2022/03/07 08:24:10;;;;;;;37.10;22.57;;;;;;;2.46;80.41;102913.78;5050795;28;20201;-72
2022/03/07 08:26:36;;;;;;;34.97;21.53;;;;;;;2.79;79.32;102914.97;5021782;28;20298;-72
2022/03/07 08:29:01;;;;;;;36.53;23.37;;;;;;;2.96;79.29;102918.91;5033022;28;20621;-72
2022/03/07 08:31:27;;;;;;;35.57;23.07;;;;;;;3.13;79.89;102916.97;5050647;28;20189;-72
2022/03/07 08:33:52;;;;;;;34.63;22.67;;;;;;;3.31;78.04;102910.91;5039934;28;20345;-71
2022/03/07 08:36:17;;;;;;;32.50;22.60;;;;;;;3.47;76.73;102906.31;5031282;28;20504;-71
2022/03/07 08:38:42;;;;;;;35.97;23.13;;;;;;;3.68;76.52;102897.91;5030737;28;20217;-72
2022/03/07 08:41:08;;;;;;;36.67;23.43;;;;;;;3.84;75.80;102902.53;5031003;28;20193;-72
2022/03/07 08:43:33;;;;;;;30.33;22.50;;;;;;;4.18;76.00;102901.91;5030585;28;20205;-72
2022/03/07 08:45:59;;;;;;;28.40;21.00;;;;;;;4.53;74.34;102893.69;5029414;28;20194;-73
2022/03/07 08:48:25;;;;;;;29.67;21.03;;;;;;;4.65;73.31;102896.25;5030444;28;20198;-73
2022/03/07 08:50:51;;;;;;;25.27;19.03;;;;;;;4.88;72.31;102901.41;5030394;28;20236;-72
2022/03/07 08:53:17;;;;;;;24.93;18.80;;;;;;;5.19;71.94;102902.91;5029309;28;20209;-72
2022/03/07 08:55:42;;;;;;;24.23;19.20;;;;;;;5.37;71.87;102905.16;5030285;28;20302;-71
2022/03/07 08:58:08;;;;;;;27.40;19.47;;;;;;;5.44;70.84;102896.31;5016766;28;20637;-73
2022/03/07 09:00:33;;;;;;;25.40;19.63;;;;;;;5.62;70.81;102908.69;5029882;28;20194;-71
2022/03/07 09:02:59;;;;;;;25.00;19.17;;;;;;;5.96;70.27;102905.28;5030126;28;20206;-72
2022/03/07 09:05:25;;;;;;;24.67;17.90;;;;;;;6.13;69.08;102909.88;5012348;28;20214;-72
2022/03/07 09:07:50;;;;;;;25.47;19.33;;;;;;;6.13;68.92;102917.50;5038039;28;20221;-72
2022/03/07 09:10:16;;;;;;;22.07;17.60;;;;;;;6.54;69.02;102907.66;5046247;28;20699;-72
2022/03/07 09:12:41;;;;;;;20.33;15.43;;;;;;;7.25;66.93;102900.63;5031850;28;20213;-72
2022/03/07 09:15:07;;;;;;;16.93;13.77;;;;;;;9.13;60.33;102891.25;5037786;28;20237;-72
2022/03/07 09:17:33;;;;;;;17.80;14.17;;;;;;;13.68;47.47;102887.47;5029719;28;20927;-73
2022/03/07 09:19:58;;;;;;;14.27;12.77;;;;;;;17.62;37.79;102870.94;5011967;28;20197;-73
2022/03/07 09:22:25;;;;;;;14.10;12.60;;;;;;;18.53;35.30;102872.09;5029705;28;20214;-73
2022/03/07 09:24:53;;;;;;;13.87;12.47;;;;;;;19.32;33.51;102876.19;5031611;28;20191;-74
2022/03/07 09:27:19;;;;;;;14.03;12.80;;;;;;;20.15;31.86;102872.22;5046250;28;20274;-73
2022/03/07 09:29:45;;;;;;;14.20;11.97;;;;;;;19.79;31.37;102866.50;5049409;28;20736;-74
2022/03/07 09:32:12;;;;;;;13.27;11.87;;;;;;;20.85;29.81;102869.56;5015185;28;20669;-72
2022/03/07 09:34:38;;;;;;;13.80;12.30;;;;;;;21.40;28.77;102858.78;5032722;28;20209;-73
2022/03/07 09:37:04;;;;;;;12.80;11.60;;;;;;;21.81;28.04;102854.75;5029462;28;20979;-73
2022/03/07 09:39:31;;;;;;;12.47;11.30;;;;;;;18.89;31.66;102868.47;5029660;28;20555;-73
2022/03/07 09:41:57;;;;;;;12.83;11.63;;;;;;;20.00;30.15;102870.25;5029494;28;20894;-73
2022/03/07 09:44:23;;;;;;;13.07;11.90;;;;;;;21.17;29.64;102853.41;5011054;28;20209;-74
2022/03/07 09:46:50;;;;;;;12.73;11.60;;;;;;;21.74;27.85;102853.84;5028666;28;20182;-72
2022/03/07 09:49:15;;;;;;;13.27;12.07;;;;;;;23.33;26.72;102868.28;5029649;28;20190;-73
2022/03/07 09:51:40;;;;;;;11.73;10.63;;;;;;;22.97;26.60;102863.88;5029368;28;20458;-73
2022/03/07 09:54:06;;;;;;;12.48;11.23;;;;;;;23.54;26.19;102856.06;5029380;28;20536;-73
2022/03/07 09:56:32;;;;;;;12.13;10.93;;;;;;;22.31;27.43;102866.31;5029482;28;20222;-74
2022/03/07 09:58:57;;;;;;;11.10;10.20;;;;;;;23.68;26.41;102862.16;5029278;28;20194;-73
2022/03/07 10:01:23;;;;;;;11.23;10.15;;;;;;;24.02;25.37;102852.47;5011494;28;20225;-73
2022/03/07 10:03:49;;;;;;;12.43;11.18;;;;;;;23.99;26.52;102855.97;5029156;28;20218;-74
2022/03/07 10:06:16;;;;;;;11.10;10.10;;;;;;;24.87;24.50;102846.78;5028670;28;20248;-74
2022/03/07 10:08:56;;;;;;;11.85;10.70;;;;;;;24.01;25.59;102846.38;5029057;28;20733;-73
2022/03/07 10:11:23;;;;;;;10.82;9.82;;;;;;;24.66;24.91;102843.44;5029078;28;20183;-74
2022/03/07 10:13:50;;;;;;;11.25;10.15;;;;;;;25.74;23.32;102837.28;5030138;28;20211;-74
2022/03/07 10:16:16;;;;;;;9.98;9.15;;;;;;;26.32;22.60;102833.06;5048931;28;20221;-73
2022/03/07 10:18:49;;;;;;;10.93;9.82;;;;;;;25.64;22.51;102835.66;5030960;28;20190;-73
2022/03/07 10:21:23;;;;;;;10.57;9.48;;;;;;;23.14;26.17;102846.47;5013715;28;20232;-73
2022/03/07 10:23:54;;;;;;;9.90;8.93;;;;;;;24.92;24.16;102841.50;5029052;28;20691;-74
2022/03/07 10:26:19;;;;;;;10.30;9.40;;;;;;;26.69;21.97;102836.94;5028428;28;20225;-74
2022/03/07 10:28:52;;;;;;;10.57;9.57;;;;;;;26.93;22.20;102833.94;5048911;28;20197;-75
2022/03/07 10:31:18;;;;;;;9.57;8.75;;;;;;;26.11;23.38;102834.22;5048651;28;20220;-73
2022/03/07 10:33:58;;;;;;;9.48;8.68;;;;;;;27.27;21.70;102832.50;5027568;28;20736;-74
2022/03/07 10:36:33;;;;;;;9.57;8.68;;;;;;;25.59;22.66;102843.56;5029031;28;20198;-74
2022/03/07 10:38:59;;;;;;;10.68;9.57;;;;;;;26.70;21.81;102836.06;5029085;28;20724;-74
2022/03/07 10:41:37;;;;;;;10.32;9.35;;;;;;;27.53;21.45;102830.28;5028796;28;20190;-74
2022/03/07 10:44:04;;;;;;;10.30;9.02;;;;;;;26.18;22.76;102835.88;5041599;28;20815;-74
2022/03/07 10:46:30;;;;;;;9.77;8.88;;;;;;;26.58;21.69;102834.50;5048620;28;20319;-74
2022/03/07 10:48:55;;;;;;;10.00;9.05;;;;;;;26.16;22.36;102842.91;5048610;28;20621;-75
2022/03/07 10:51:21;;;;;;;9.40;8.65;;;;;;;26.99;21.54;102834.69;5048418;28;20185;-73
2022/03/07 10:53:47;;;;;;;10.02;9.02;;;;;;;27.77;21.65;102833.28;5048702;28;20202;-74
2022/03/07 10:56:15;;;;;;;9.05;8.15;;;;;;;27.43;21.07;102839.22;5014146;28;20189;-74
2022/03/07 10:58:53;;;;;;;9.18;8.38;;;;;;;27.45;21.22;102832.19;5048857;28;20284;-74
2022/03/07 11:01:28;;;;;;;9.30;8.50;;;;;;;27.66;20.82;102834.38;5048735;28;20213;-74
2022/03/07 11:03:54;;;;;;;9.00;8.20;;;;;;;27.60;21.36;102835.38;5048933;28;20254;-73
2022/03/07 11:06:20;;;;;;;8.00;7.20;;;;;;;27.92;20.52;102825.13;5048051;28;20244;-74